Hallam, Nebraska
Current Conditions -  °F | °C
As of 2:55 AM on Saturday 25 Oct 2014 (Local Time) from KBIE Reporting Station
Clear Clear  
Wind Chill: 47°   Ceiling: Unl
Heat Index: 47°   Visibility: 7mi
Dew Point: 46°   Wind: 3mph
Humidity: 99%   Direction: 360°N
Pressure: 30.03"   Gusts: NA
Location:  40.54°N, 96.79°W
Report Text: KBIE 250755Z AUTO 36003KT 7SM CLR 08/08 A3003 RMK AO2 T00820080
Loading
Personal Weather Stations






























Interactive Weather Map
Tropical Storm Tracking
New forecast layout! Learn more

10-Day Weather Forecast

Advertisements
Track Severe Weather on mobile